Wednesday, April 25, 2018, 12:20 PM GMT
Back to Local

CWEW, L'Assomption

Location: , , Canada Lat: 45.817
Local Time: 12:20 PM GMT (12:20 GMT) Lon: -73.433
Time Zone: GMT Elev: 68 ft

Show me the last for .
Show Coded

Time T Td Feel RH Dir Speed Gust Alt SLP Vis Weather Sky Remarks
2018-04-25 12:00 54 39 - 56 180° 8 - - 30.06 0 None
2018-04-25 11:00 51 37 - 57 - Calm - - 30.04 0 None
2018-04-25 10:00 51 35 - 54 150° 3 - - 30.03 0 None
2018-04-25 09:00 51 36 - 56 190° 2 - - 30.03 0 None
2018-04-25 08:00 51 35 - 53 60° 1 - - 30.04 0 None
2018-04-25 07:00 55 33 - 43 200° 3 - - 30.04 0 1-hr Precip Total: 0.02"
2018-04-25 06:00 54 35 - 48 140° 3 - - 30.04 0 None
2018-04-25 05:00 53 38 - 56 200° 1 - - 30.06 0 None
2018-04-25 04:00 56 40 - 55 210° 2 - - 30.06 0 None
2018-04-25 03:00 57 40 - 52 230° 2 - - 30.07 0 None
2018-04-25 02:00 60 40 - 46 180° 3 - - 30.08 0 None
2018-04-25 01:00 62 39 - 43 230° 2 - - 30.09 0 None
2018-04-25 00:00 64 40 - 41 200° 3 - - 30.08 0 None
2018-04-24 23:00 68 39 - 35 230° 3 - - 30.08 0 None
2018-04-24 22:00 69 38 - 31 230° 9 - - 30.09 0 None
2018-04-24 21:00 70 38 - 31 230° 9 - - 30.10 0 Peak wind: 19 mph (17 kts) from 220° at 08 min
2018-04-24 20:00 71 40 - 32 240° 8 - - 30.11 0 None
2018-04-24 19:00 71 39 - 30 230° 10 - - 30.13 0 None
2018-04-24 18:00 70 37 - 30 250° 9 - - 30.16 0 None
2018-04-24 17:00 70 39 - 32 210° 12 18 - 30.18 0 Peak wind: 21 mph (19 kts) from 240° at 43 min
2018-04-24 16:00 67 36 - 32 230° 10 - - 30.21 0 Peak wind: 20 mph (18 kts) from 230° at 16 min
2018-04-24 15:00 64 32 - 29 230° 10 17 - 30.23 0 None
2018-04-24 14:00 59 29 - 31 180° 6 - - 30.24 0 None
2018-04-24 13:00 53 29 - 40 190° 7 - - 30.26 0 None

Support USWX by starting your Amazon purchase here.